Time;durP1;ratioP1;P1;durP2;ratioP2;P2;SDS_P1;SDS_P2;PMS_P1;PMS_P2;Temp;Humidity;BMP_temperature;BMP_pressure;BME280_temperature;BME280_humidity;BME280_pressure;Samples;Min_cycle;Max_cycle;Signal;HPM_P1;HPM_P2
2021/01/29 00:00:09;;;;;;;1.73;1.63;;;8.90;99.90;;;;;;5033621;28;20298;-58
2021/01/29 00:02:36;;;;;;;5.00;4.32;;;8.90;99.90;;;;;;5033315;28;20284;-58
2021/01/29 00:05:04;;;;;;;3.33;2.70;;;8.90;99.90;;;;;;5033480;28;20274;-58
2021/01/29 00:07:31;;;;;;;11.75;8.43;;;8.90;99.90;;;;;;5033341;28;20248;-57
2021/01/29 00:09:59;;;;;;;5.50;4.93;;;8.90;99.90;;;;;;5033591;28;20683;-60
2021/01/29 00:12:26;;;;;;;3.25;2.80;;;8.90;99.90;;;;;;5033348;28;20224;-58
2021/01/29 00:14:53;;;;;;;5.68;4.97;;;8.90;99.90;;;;;;5033195;28;20295;-60
2021/01/29 00:17:20;;;;;;;4.97;3.28;;;8.90;99.90;;;;;;5032981;28;20212;-56
2021/01/29 00:19:47;;;;;;;2.70;2.30;;;8.90;99.90;;;;;;5033148;28;20236;-57
2021/01/29 00:22:14;;;;;;;2.83;2.53;;;8.90;99.90;;;;;;5033118;28;20236;-57
2021/01/29 00:24:41;;;;;;;3.13;2.83;;;8.90;99.90;;;;;;5032968;28;20652;-58
2021/01/29 00:27:09;;;;;;;2.85;2.65;;;8.90;99.90;;;;;;5032897;28;20292;-59
2021/01/29 00:29:36;;;;;;;2.70;2.50;;;8.90;99.90;;;;;;5033136;28;20263;-58
2021/01/29 00:32:04;;;;;;;4.38;3.45;;;8.90;99.90;;;;;;5032654;28;20685;-61
2021/01/29 00:34:31;;;;;;;2.60;2.40;;;8.90;99.90;;;;;;5032880;28;20622;-60
2021/01/29 00:36:58;;;;;;;2.85;2.65;;;8.90;99.90;;;;;;5032686;28;20682;-60
2021/01/29 00:39:25;;;;;;;3.30;3.00;;;8.90;99.90;;;;;;5032746;28;20672;-60
2021/01/29 00:41:52;;;;;;;3.28;3.00;;;8.90;99.90;;;;;;5032739;28;20205;-59
2021/01/29 00:44:20;;;;;;;3.25;3.05;;;8.90;99.90;;;;;;5032844;28;20244;-58
2021/01/29 00:46:47;;;;;;;2.80;2.60;;;8.80;99.90;;;;;;5032348;28;20635;-61
2021/01/29 00:49:14;;;;;;;2.42;2.30;;;8.80;99.90;;;;;;5032525;28;20231;-58
2021/01/29 00:51:41;;;;;;;3.00;2.53;;;8.70;99.90;;;;;;5032613;28;20300;-60
2021/01/29 00:54:09;;;;;;;2.65;2.45;;;8.70;99.90;;;;;;5032472;28;20654;-59
2021/01/29 00:56:36;;;;;;;2.50;2.30;;;8.60;99.90;;;;;;5032446;28;20296;-59
2021/01/29 00:59:03;;;;;;;2.40;2.20;;;8.60;99.90;;;;;;5032309;28;20240;-61
2021/01/29 01:01:30;;;;;;;2.65;2.45;;;8.60;99.90;;;;;;5032324;28;20307;-61
2021/01/29 01:03:58;;;;;;;3.40;2.53;;;8.60;99.90;;;;;;5032594;28;20200;-61
2021/01/29 01:06:25;;;;;;;2.88;2.45;;;8.60;99.90;;;;;;5032441;28;20296;-60
2021/01/29 01:08:51;;;;;;;2.08;1.90;;;8.60;99.90;;;;;;5032332;28;20633;-59
2021/01/29 01:11:18;;;;;;;2.55;2.35;;;8.70;99.90;;;;;;5032251;28;20204;-59
2021/01/29 01:13:45;;;;;;;3.08;2.85;;;8.70;99.90;;;;;;5032034;28;20256;-59
2021/01/29 01:16:13;;;;;;;2.60;2.40;;;8.70;99.90;;;;;;5032096;28;20615;-59
2021/01/29 01:18:42;;;;;;;2.80;2.60;;;8.70;99.90;;;;;;5031982;28;20667;-58
2021/01/29 01:21:09;;;;;;;2.83;2.63;;;8.60;99.90;;;;;;5031789;28;20205;-59
2021/01/29 01:23:36;;;;;;;3.00;2.80;;;8.60;99.90;;;;;;5032151;28;20641;-60
2021/01/29 01:26:03;;;;;;;2.33;2.22;;;8.60;99.90;;;;;;5031925;28;20247;-60
2021/01/29 01:28:30;;;;;;;2.88;2.67;;;8.60;99.90;;;;;;5031781;28;20208;-60
2021/01/29 01:30:57;;;;;;;3.08;2.72;;;8.60;99.90;;;;;;5031731;28;20746;-59
2021/01/29 01:33:24;;;;;;;2.80;2.60;;;8.60;99.90;;;;;;5058581;22;20280;-57
2021/01/29 01:35:52;;;;;;;2.90;2.70;;;8.60;99.90;;;;;;5052038;28;20299;-58
2021/01/29 01:38:19;;;;;;;2.60;2.40;;;8.60;99.90;;;;;;5051333;28;20576;-56
2021/01/29 01:40:46;;;;;;;3.47;3.17;;;8.60;99.90;;;;;;5051770;28;20214;-58
2021/01/29 01:43:14;;;;;;;3.10;2.90;;;8.60;99.90;;;;;;5051563;28;20234;-55
2021/01/29 01:46:03;;;;;;;2.70;2.50;;;8.60;99.90;;;;;;5149366;22;20592;-52
2021/01/29 01:48:53;;;;;;;2.70;2.50;;;8.70;99.90;;;;;;5031753;28;20209;-53
2021/01/29 01:51:38;;;;;;;2.72;2.53;;;8.70;99.90;;;;;;5028691;28;20295;-61
2021/01/29 01:54:19;;;;;;;3.00;2.72;;;8.70;99.90;;;;;;5032004;28;20340;-59
2021/01/29 01:56:50;;;;;;;2.63;2.42;;;8.80;99.90;;;;;;5031834;28;20209;-60
2021/01/29 01:59:20;;;;;;;3.23;2.90;;;8.70;99.90;;;;;;5229522;22;20239;-61
2021/01/29 02:01:49;;;;;;;2.90;2.70;;;8.80;99.90;;;;;;5051623;28;20583;-57
2021/01/29 02:04:17;;;;;;;2.58;2.47;;;8.80;99.90;;;;;;5051226;28;20219;-59
2021/01/29 02:06:54;;;;;;;2.65;2.45;;;8.80;99.90;;;;;;5051670;28;20320;-59
2021/01/29 02:09:25;;;;;;;2.80;2.60;;;8.90;99.90;;;;;;5052300;28;20307;-60
2021/01/29 02:11:54;;;;;;;2.30;2.20;;;8.90;99.90;;;;;;5152974;22;20260;-57
2021/01/29 02:14:21;;;;;;;2.03;1.92;;;8.80;99.90;;;;;;5031310;28;20630;-61
2021/01/29 02:16:55;;;;;;;2.22;2.05;;;8.70;99.90;;;;;;5031506;28;20204;-60
2021/01/29 02:19:49;;;;;;;2.15;2.05;;;8.70;99.90;;;;;;5031542;28;20629;-56
2021/01/29 02:22:48;;;;;;;2.17;2.08;;;8.70;99.90;;;;;;5031375;28;20209;-58
2021/01/29 02:25:35;;;;;;;2.22;2.13;;;8.70;99.90;;;;;;5031410;28;20263;-60
2021/01/29 02:28:07;;;;;;;1.98;1.83;;;8.70;99.90;;;;;;5031629;28;20295;-57
2021/01/29 02:31:10;;;;;;;2.00;1.90;;;8.70;99.90;;;;;;5031593;28;20300;-58
2021/01/29 02:34:15;;;;;;;2.10;1.83;;;8.80;99.90;;;;;;5028617;28;20232;-58
2021/01/29 02:37:16;;;;;;;2.00;1.90;;;8.80;99.90;;;;;;5031323;28;20215;-59
2021/01/29 02:39:57;;;;;;;2.05;1.90;;;8.80;99.90;;;;;;5030902;28;20262;-56
2021/01/29 02:42:40;;;;;;;2.97;1.90;;;8.90;99.90;;;;;;5031597;28;20231;-58
2021/01/29 02:45:19;;;;;;;1.92;1.83;;;8.90;99.90;;;;;;5031260;28;20303;-56
2021/01/29 02:47:56;;;;;;;3.03;2.00;;;8.90;99.90;;;;;;5031271;28;20219;-59
2021/01/29 02:50:35;;;;;;;1.58;1.48;;;9.00;99.90;;;;;;5032664;28;20236;-59
2021/01/29 02:53:15;;;;;;;1.83;1.73;;;9.00;99.90;;;;;;5034952;28;20315;-59
2021/01/29 02:55:50;;;;;;;2.00;1.88;;;9.10;99.90;;;;;;5034727;28;20216;-61
2021/01/29 02:58:22;;;;;;;1.83;1.73;;;9.10;99.90;;;;;;5034666;28;20305;-61
2021/01/29 03:00:56;;;;;;;1.77;1.67;;;9.10;99.90;;;;;;5034739;28;20237;-59
2021/01/29 03:03:26;;;;;;;1.67;1.50;;;9.20;99.90;;;;;;5034449;28;20227;-61
2021/01/29 03:05:58;;;;;;;2.28;1.58;;;9.20;99.90;;;;;;5034857;28;20212;-61
2021/01/29 03:08:29;;;;;;;2.58;1.35;;;9.20;99.90;;;;;;5034420;28;20223;-60
2021/01/29 03:11:02;;;;;;;1.77;1.67;;;9.20;99.90;;;;;;5034286;28;20244;-62
2021/01/29 03:13:31;;;;;;;1.33;1.20;;;9.20;99.90;;;;;;5034491;28;20250;-61
2021/01/29 03:16:06;;;;;;;1.52;1.35;;;9.20;99.90;;;;;;5034553;28;20640;-58
2021/01/29 03:18:38;;;;;;;1.80;1.70;;;9.20;99.90;;;;;;5034165;28;20207;-60
2021/01/29 03:21:11;;;;;;;1.50;1.40;;;9.20;99.90;;;;;;5034318;28;20257;-61
2021/01/29 03:23:41;;;;;;;1.30;1.20;;;9.20;99.90;;;;;;5034389;28;20209;-60
2021/01/29 03:26:16;;;;;;;1.80;1.08;;;9.30;99.90;;;;;;5034311;28;20212;-61
2021/01/29 03:28:48;;;;;;;1.10;1.00;;;9.30;99.90;;;;;;5132864;23;20721;-59
2021/01/29 03:31:20;;;;;;;1.23;1.13;;;9.30;99.90;;;;;;5054045;28;20207;-58
2021/01/29 03:33:49;;;;;;;1.30;1.20;;;9.30;99.90;;;;;;5054249;28;20227;-62
2021/01/29 03:36:21;;;;;;;1.42;1.27;;;9.30;99.90;;;;;;5054143;28;20391;-59
2021/01/29 03:38:56;;;;;;;1.40;1.30;;;9.30;99.90;;;;;;5053950;28;20406;-58
2021/01/29 03:41:26;;;;;;;0.93;0.90;;;9.30;99.90;;;;;;5053916;28;20288;-59
2021/01/29 03:44:02;;;;;;;1.05;0.95;;;9.30;99.90;;;;;;5053616;28;20284;-60
2021/01/29 03:46:36;;;;;;;0.85;0.85;;;9.30;99.90;;;;;;5054194;28;20214;-60
2021/01/29 03:49:14;;;;;;;1.00;0.88;;;9.30;99.90;;;;;;5053728;28;20214;-60
2021/01/29 03:51:51;;;;;;;4.28;3.13;;;9.30;99.90;;;;;;5053641;28;20306;-60
2021/01/29 03:54:24;;;;;;;1.60;1.50;;;9.30;99.90;;;;;;5053599;28;20239;-58
2021/01/29 03:57:03;;;;;;;1.00;0.80;;;9.30;99.90;;;;;;5053590;28;20306;-59
2021/01/29 03:59:37;;;;;;;0.93;0.82;;;9.30;99.90;;;;;;5175363;22;20263;-59
2021/01/29 04:02:12;;;;;;;0.80;0.80;;;9.20;99.90;;;;;;5033189;28;20219;-59
2021/01/29 04:04:51;;;;;;;0.90;0.80;;;9.30;99.90;;;;;;5033759;28;20208;-58
2021/01/29 04:07:22;;;;;;;1.48;0.77;;;9.30;99.90;;;;;;5033561;28;20244;-61
2021/01/29 04:09:54;;;;;;;2.95;2.15;;;9.20;99.90;;;;;;5033757;28;20208;-59
2021/01/29 04:12:31;;;;;;;0.70;0.70;;;9.20;99.90;;;;;;5033182;28;20248;-60
2021/01/29 04:15:06;;;;;;;1.17;0.93;;;9.20;99.90;;;;;;5033401;28;20238;-61
2021/01/29 04:17:39;;;;;;;1.02;0.98;;;9.20;99.90;;;;;;5033469;28;20302;-59
2021/01/29 04:20:12;;;;;;;1.15;1.05;;;9.20;99.90;;;;;;5033330;28;20255;-59
2021/01/29 04:22:42;;;;;;;1.13;1.02;;;9.30;99.90;;;;;;5033360;28;20258;-59
2021/01/29 04:25:17;;;;;;;0.75;0.75;;;9.20;99.90;;;;;;5033149;28;20295;-55
2021/01/29 04:27:50;;;;;;;1.95;1.30;;;9.30;99.90;;;;;;5033000;28;20721;-55
2021/01/29 04:30:21;;;;;;;1.42;1.33;;;9.30;99.90;;;;;;5032831;28;20592;-58
2021/01/29 04:32:52;;;;;;;1.33;1.23;;;9.30;99.90;;;;;;5034729;28;20307;-59
2021/01/29 04:35:22;;;;;;;0.90;0.90;;;9.30;99.90;;;;;;5032415;28;20205;-60
2021/01/29 04:38:02;;;;;;;1.23;1.05;;;9.30;99.90;;;;;;5032674;28;20240;-57
2021/01/29 04:40:31;;;;;;;1.40;1.30;;;9.30;99.90;;;;;;5032376;28;20786;-59
2021/01/29 04:43:35;;;;;;;4.38;2.42;;;9.30;99.90;;;;;;5032733;28;20578;-59
2021/01/29 04:46:16;;;;;;;1.08;0.98;;;9.20;99.90;;;;;;4952216;29;20214;-58
2021/01/29 04:48:50;;;;;;;1.13;1.00;;;9.20;99.90;;;;;;5022785;28;20601;-62
2021/01/29 04:51:46;;;;;;;1.52;1.13;;;9.20;99.90;;;;;;5032709;28;20463;-62
2021/01/29 04:54:39;;;;;;;3.92;1.95;;;9.20;99.90;;;;;;5032300;28;20264;-60
2021/01/29 04:57:52;;;;;;;4.18;3.67;;;9.20;99.90;;;;;;5032344;28;20628;-56
2021/01/29 05:01:02;;;;;;;1.30;0.93;;;9.10;99.90;;;;;;5012426;28;20296;-58
2021/01/29 05:04:03;;;;;;;4.50;2.90;;;9.10;99.90;;;;;;5013150;28;20256;-57
2021/01/29 05:06:39;;;;;;;2.37;1.40;;;9.00;99.90;;;;;;5012466;28;20230;-57
2021/01/29 05:09:42;;;;;;;1.30;0.93;;;9.00;99.90;;;;;;5012329;28;20208;-59
2021/01/29 05:12:36;;;;;;;3.53;1.48;;;9.00;99.90;;;;;;4993396;28;20292;-58
2021/01/29 05:15:22;;;;;;;1.02;0.68;;;8.90;99.90;;;;;;5012081;28;20324;-58
2021/01/29 05:18:16;;;;;;;3.75;2.45;;;8.90;99.90;;;;;;5012770;28;20251;-61
2021/01/29 05:20:49;;;;;;;0.93;0.80;;;8.90;99.90;;;;;;5012188;28;20292;-59
2021/01/29 05:23:39;;;;;;;0.68;0.68;;;8.90;99.90;;;;;;5012036;28;20300;-59
2021/01/29 05:26:38;;;;;;;1.45;0.88;;;8.80;99.90;;;;;;5010050;28;20241;-58
2021/01/29 05:29:23;;;;;;;0.73;0.73;;;8.80;99.90;;;;;;5012134;28;20213;-60
2021/01/29 05:32:30;;;;;;;1.88;0.50;;;8.80;99.90;;;;;;5011772;28;20233;-60
2021/01/29 05:35:15;;;;;;;0.60;0.60;;;8.70;99.90;;;;;;5012273;28;20247;-60
2021/01/29 05:38:20;;;;;;;1.00;0.90;;;8.70;99.90;;;;;;5012212;28;20635;-60
2021/01/29 05:41:15;;;;;;;0.80;0.70;;;8.70;99.90;;;;;;5003409;28;20299;-58
2021/01/29 05:44:35;;;;;;;2.13;1.65;;;8.70;99.90;;;;;;5012133;28;20241;-56
2021/01/29 05:47:21;;;;;;;2.50;0.95;;;8.60;99.90;;;;;;5009153;28;20296;-59
2021/01/29 05:50:06;;;;;;;0.98;0.90;;;8.60;99.90;;;;;;5011903;28;20205;-60
2021/01/29 05:52:55;;;;;;;1.85;0.50;;;8.60;99.90;;;;;;5011684;28;20263;-59
2021/01/29 05:55:37;;;;;;;2.00;1.27;;;8.60;99.90;;;;;;5014286;28;20208;-58
2021/01/29 05:58:40;;;;;;;1.10;0.80;;;8.60;99.90;;;;;;5013869;28;20720;-57
2021/01/29 06:01:35;;;;;;;0.60;0.60;;;8.50;99.90;;;;;;5032892;28;20297;-61
2021/01/29 06:04:19;;;;;;;0.75;0.70;;;8.50;99.90;;;;;;5028871;28;20212;-56
2021/01/29 06:07:00;;;;;;;2.25;1.20;;;8.50;99.90;;;;;;5031522;28;20295;-59
2021/01/29 06:09:56;;;;;;;14.20;7.85;;;8.40;99.90;;;;;;5031567;28;20658;-60
2021/01/29 06:12:57;;;;;;;7.40;5.07;;;8.40;99.90;;;;;;5031417;28;20279;-60
2021/01/29 06:16:17;;;;;;;1.90;1.38;;;8.40;99.90;;;;;;5031680;28;20232;-59
2021/01/29 06:19:20;;;;;;;6.40;4.85;;;8.40;99.90;;;;;;5021847;28;20700;-60
2021/01/29 06:22:24;;;;;;;4.05;1.25;;;8.40;99.90;;;;;;4998239;28;20208;-62
2021/01/29 06:25:08;;;;;;;0.70;0.60;;;8.30;99.90;;;;;;4960098;28;20608;-58
2021/01/29 06:28:04;;;;;;;0.93;0.80;;;8.30;99.90;;;;;;5035307;28;20291;-61
2021/01/29 06:30:44;;;;;;;0.52;0.52;;;8.30;99.90;;;;;;5035216;28;20236;-62
2021/01/29 06:33:40;;;;;;;1.92;1.15;;;8.30;99.90;;;;;;5035022;28;20212;-61
2021/01/29 06:36:20;;;;;;;0.75;0.73;;;8.30;99.90;;;;;;5035245;28;20304;-58
2021/01/29 06:39:05;;;;;;;0.70;0.70;;;8.20;99.90;;;;;;5034928;28;20216;-59
2021/01/29 06:41:58;;;;;;;0.77;0.77;;;8.20;99.90;;;;;;5035128;28;20214;-61
2021/01/29 06:44:49;;;;;;;1.00;0.80;;;8.10;99.90;;;;;;5034840;28;20255;-61
2021/01/29 06:47:33;;;;;;;0.70;0.65;;;8.10;99.90;;;;;;4998466;28;20291;-59
2021/01/29 06:50:20;;;;;;;2.33;2.00;;;8.00;99.90;;;;;;5034707;28;20681;-58
2021/01/29 06:53:19;;;;;;;1.02;0.63;;;8.00;99.90;;;;;;5034842;28;20263;-59
2021/01/29 06:56:09;;;;;;;1.20;1.10;;;8.10;99.90;;;;;;5034506;28;20208;-58
2021/01/29 06:58:59;;;;;;;0.70;0.70;;;8.10;99.90;;;;;;5034528;28;20236;-56
2021/01/29 07:01:59;;;;;;;4.10;2.97;;;8.10;99.90;;;;;;5034421;28;20300;-57
2021/01/29 07:04:58;;;;;;;0.70;0.70;;;8.10;99.90;;;;;;5034901;28;20204;-58
2021/01/29 07:07:47;;;;;;;1.50;1.02;;;8.20;99.90;;;;;;5034598;28;20220;-55
2021/01/29 07:10:48;;;;;;;1.40;0.93;;;8.30;99.90;;;;;;4991362;28;20213;-59
2021/01/29 07:13:25;;;;;;;2.22;2.00;;;8.30;99.90;;;;;;5034483;28;20209;-56
2021/01/29 07:16:11;;;;;;;1.85;0.93;;;8.40;99.90;;;;;;5034233;28;20204;-59
2021/01/29 07:18:56;;;;;;;0.80;0.73;;;8.40;99.90;;;;;;5272340;22;20228;-57
2021/01/29 07:21:34;;;;;;;1.15;1.05;;;8.40;99.90;;;;;;5034349;28;20656;-60
2021/01/29 07:24:28;;;;;;;1.27;0.95;;;8.40;99.90;;;;;;5034389;28;20208;-57
2021/01/29 07:27:07;;;;;;;1.48;0.82;;;8.50;99.90;;;;;;5034081;28;20585;-59
2021/01/29 07:29:46;;;;;;;2.40;1.83;;;8.50;99.90;;;;;;5034298;28;20287;-55
2021/01/29 07:32:22;;;;;;;1.17;1.05;;;8.60;99.90;;;;;;5034085;28;20204;-59
2021/01/29 07:34:58;;;;;;;1.23;1.13;;;8.60;99.90;;;;;;5033943;28;20228;-54
2021/01/29 07:37:57;;;;;;;1.20;1.10;;;8.70;99.90;;;;;;5033081;28;20299;-59
2021/01/29 07:40:55;;;;;;;1.30;1.00;;;8.70;99.90;;;;;;5033838;28;20666;-57
2021/01/29 07:43:31;;;;;;;1.15;1.10;;;8.70;99.90;;;;;;5033637;28;20219;-55
2021/01/29 07:46:37;;;;;;;1.27;1.10;;;8.70;99.90;;;;;;5033595;28;20239;-58
2021/01/29 07:49:21;;;;;;;0.95;0.80;;;8.70;99.90;;;;;;5032644;28;20270;-59
2021/01/29 07:51:54;;;;;;;0.93;0.93;;;8.70;99.90;;;;;;5033487;28;20209;-54
2021/01/29 07:54:48;;;;;;;1.38;1.00;;;8.70;99.90;;;;;;5033612;28;20228;-51
2021/01/29 07:57:29;;;;;;;0.75;0.75;;;8.70;99.90;;;;;;5033561;28;20205;-49
2021/01/29 08:00:17;;;;;;;2.40;0.98;;;8.70;99.90;;;;;;5033562;28;20266;-51
2021/01/29 08:03:35;;;;;;;0.77;0.63;;;8.70;99.90;;;;;;5033445;28;20295;-50
2021/01/29 08:06:07;;;;;;;0.60;0.60;;;8.80;99.90;;;;;;5033332;28;20288;-48
2021/01/29 08:08:38;;;;;;;1.40;1.30;;;8.80;99.90;;;;;;5033385;28;20379;-51
2021/01/29 08:11:09;;;;;;;0.88;0.88;;;8.80;99.90;;;;;;5033645;28;20345;-49
2021/01/29 08:14:00;;;;;;;0.80;0.80;;;8.90;99.90;;;;;;5033282;28;20576;-48
2021/01/29 08:17:06;;;;;;;0.82;0.82;;;8.90;99.90;;;;;;5033283;28;20291;-48
2021/01/29 08:19:46;;;;;;;0.80;0.80;;;9.00;99.90;;;;;;5032916;28;20244;-50
2021/01/29 08:22:44;;;;;;;0.75;0.75;;;9.00;99.90;;;;;;5033169;28;20315;-51
2021/01/29 08:25:22;;;;;;;0.60;0.60;;;9.00;99.90;;;;;;5033033;28;20208;-51
2021/01/29 08:28:38;;;;;;;1.05;0.95;;;9.00;99.90;;;;;;5033169;28;20189;-49
2021/01/29 08:31:42;;;;;;;2.28;1.73;;;9.00;99.90;;;;;;5033035;28;20292;-47
2021/01/29 08:34:21;;;;;;;1.05;0.95;;;9.00;99.90;;;;;;5032698;28;20725;-55
2021/01/29 08:37:24;;;;;;;1.20;1.10;;;9.00;99.90;;;;;;5032699;28;20303;-57
2021/01/29 08:39:58;;;;;;;1.48;1.02;;;9.00;99.90;;;;;;4952444;29;20211;-59
2021/01/29 08:42:35;;;;;;;1.88;0.90;;;9.10;99.90;;;;;;5021017;28;20304;-56
2021/01/29 08:45:21;;;;;;;0.70;0.70;;;9.10;99.90;;;;;;5032770;28;20295;-61
2021/01/29 08:48:03;;;;;;;0.52;0.52;;;9.10;99.90;;;;;;5032590;28;20213;-61
2021/01/29 08:50:44;;;;;;;0.88;0.85;;;9.20;99.90;;;;;;5032563;28;20205;-52
2021/01/29 08:53:50;;;;;;;1.52;0.80;;;9.20;99.90;;;;;;5032403;28;20204;-51
2021/01/29 08:56:27;;;;;;;0.63;0.60;;;9.20;99.90;;;;;;4989640;28;20240;-50
2021/01/29 08:58:59;;;;;;;1.05;0.70;;;9.20;99.90;;;;;;5032462;28;20709;-50
2021/01/29 09:01:35;;;;;;;0.90;0.85;;;9.30;99.90;;;;;;5032600;28;20236;-50
2021/01/29 09:04:07;;;;;;;1.15;0.80;;;9.30;99.90;;;;;;5032430;28;20568;-49
2021/01/29 09:06:40;;;;;;;1.30;0.70;;;9.40;99.90;;;;;;5032467;28;20609;-52
2021/01/29 09:09:14;;;;;;;0.98;0.50;;;9.40;99.90;;;;;;5032266;28;20632;-49
2021/01/29 09:11:47;;;;;;;0.70;0.60;;;9.50;99.90;;;;;;5032514;28;20292;-55
2021/01/29 09:14:22;;;;;;;0.73;0.50;;;9.50;99.90;;;;;;5032274;28;20228;-49
2021/01/29 09:16:57;;;;;;;0.68;0.68;;;9.60;99.90;;;;;;5032078;28;20228;-51
2021/01/29 09:19:25;;;;;;;0.60;0.60;;;9.60;99.90;;;;;;5117377;23;20231;-50
2021/01/29 09:22:01;;;;;;;0.88;0.70;;;9.60;99.90;;;;;;5051852;28;20298;-55
2021/01/29 09:24:37;;;;;;;6.13;4.30;;;9.70;99.90;;;;;;5202336;22;20300;-53
2021/01/29 09:27:35;;;;;;;0.63;0.60;;;9.70;99.90;;;;;;5032106;28;20218;-53
2021/01/29 09:30:08;;;;;;;0.60;0.60;;;9.70;99.90;;;;;;5031844;28;20292;-60
2021/01/29 09:32:53;;;;;;;1.20;0.85;;;9.70;99.90;;;;;;5031933;28;20215;-54
2021/01/29 09:35:29;;;;;;;1.85;1.50;;;9.70;99.90;;;;;;5031983;28;20239;-60
2021/01/29 09:37:57;;;;;;;0.80;0.70;;;9.80;99.90;;;;;;5032010;28;20270;-60
2021/01/29 09:40:29;;;;;;;1.50;1.13;;;9.80;99.90;;;;;;5031979;28;20299;-59
2021/01/29 09:43:10;;;;;;;1.38;1.02;;;9.80;99.90;;;;;;5032133;28;20349;-56
2021/01/29 09:45:40;;;;;;;0.60;0.60;;;9.90;99.90;;;;;;5032081;28;20228;-57
2021/01/29 09:48:12;;;;;;;1.15;0.90;;;9.90;99.90;;;;;;5032199;28;20213;-59
2021/01/29 09:50:40;;;;;;;0.68;0.52;;;9.80;99.90;;;;;;5032026;28;20271;-58
2021/01/29 09:53:25;;;;;;;0.75;0.73;;;9.70;99.90;;;;;;5031841;28;20209;-58
2021/01/29 09:56:06;;;;;;;2.58;1.35;;;9.70;99.90;;;;;;5031842;28;20605;-59
2021/01/29 09:58:44;;;;;;;0.70;0.70;;;9.70;99.90;;;;;;5032234;28;20245;-59
2021/01/29 10:01:15;;;;;;;0.73;0.73;;;9.80;99.90;;;;;;5035937;28;20216;-55
2021/01/29 10:03:55;;;;;;;1.40;0.70;;;9.80;99.90;;;;;;5036029;28;20216;-60
2021/01/29 10:06:25;;;;;;;1.80;1.40;;;9.90;99.90;;;;;;5036614;28;20306;-53
2021/01/29 10:08:57;;;;;;;1.20;0.80;;;10.00;99.90;;;;;;5036827;28;20212;-54
2021/01/29 10:11:27;;;;;;;0.68;0.52;;;10.10;99.90;;;;;;5035514;28;20580;-50
2021/01/29 10:14:06;;;;;;;0.90;0.77;;;10.10;99.90;;;;;;5035729;28;20247;-54
2021/01/29 10:16:56;;;;;;;1.13;0.82;;;10.20;99.90;;;;;;5035514;28;20212;-59
2021/01/29 10:19:32;;;;;;;0.80;0.80;;;10.30;99.90;;;;;;5035155;28;20212;-57
2021/01/29 10:22:25;;;;;;;0.85;0.50;;;10.30;99.90;;;;;;5035143;28;20251;-57
2021/01/29 10:25:03;;;;;;;0.77;0.68;;;10.40;99.90;;;;;;5034871;28;20619;-56
2021/01/29 10:27:39;;;;;;;0.75;0.70;;;10.40;99.90;;;;;;5035163;28;20663;-58
2021/01/29 10:30:13;;;;;;;0.93;0.70;;;10.50;99.90;;;;;;5035043;28;20208;-59
2021/01/29 10:32:51;;;;;;;0.85;0.60;;;10.60;99.90;;;;;;5034827;28;20213;-56
2021/01/29 10:35:22;;;;;;;0.77;0.57;;;10.60;99.90;;;;;;5035667;28;20232;-58
2021/01/29 10:37:59;;;;;;;3.38;1.40;;;10.60;99.90;;;;;;5036084;28;20618;-52
2021/01/29 10:40:29;;;;;;;0.88;0.52;;;10.60;99.90;;;;;;5034796;28;20214;-55
2021/01/29 10:43:04;;;;;;;1.00;0.77;;;10.70;99.90;;;;;;5034772;28;20212;-52
2021/01/29 10:45:39;;;;;;;4.78;2.70;;;10.80;99.90;;;;;;5034699;28;20299;-56
2021/01/29 10:48:31;;;;;;;0.98;0.88;;;10.90;99.90;;;;;;5034781;28;20295;-53
2021/01/29 10:51:04;;;;;;;4.78;3.38;;;11.00;99.90;;;;;;5034848;28;20209;-57
2021/01/29 10:53:32;;;;;;;1.42;1.00;;;11.10;99.90;;;;;;5034495;28;20701;-48
2021/01/29 10:56:03;;;;;;;0.70;0.70;;;11.10;99.90;;;;;;5034800;28;20315;-58
2021/01/29 10:58:50;;;;;;;2.55;0.50;;;11.10;99.90;;;;;;5033810;28;20758;-57
2021/01/29 11:01:31;;;;;;;1.10;0.90;;;11.20;99.90;;;;;;5034637;28;20213;-56
2021/01/29 11:04:04;;;;;;;1.13;0.90;;;11.30;99.90;;;;;;5034318;28;20212;-56
2021/01/29 11:06:48;;;;;;;1.45;1.35;;;11.40;99.90;;;;;;5034655;28;20231;-52
2021/01/29 11:09:25;;;;;;;1.55;1.45;;;11.40;99.90;;;;;;5034257;28;20671;-54
2021/01/29 11:12:13;;;;;;;1.77;1.33;;;11.30;99.90;;;;;;5032906;28;20213;-56
2021/01/29 11:14:47;;;;;;;1.08;0.88;;;11.20;99.90;;;;;;5034433;28;20307;-56
2021/01/29 11:17:22;;;;;;;2.83;0.82;;;11.10;99.90;;;;;;5141363;23;20276;-59
2021/01/29 11:19:51;;;;;;;1.08;0.75;;;11.10;99.90;;;;;;5053810;28;20273;-57
2021/01/29 11:22:26;;;;;;;1.35;1.08;;;11.00;99.90;;;;;;5053912;28;20211;-58
2021/01/29 11:25:21;;;;;;;0.88;0.70;;;10.90;99.90;;;;;;5054189;28;20231;-58
2021/01/29 11:27:55;;;;;;;2.22;1.05;;;10.90;99.90;;;;;;5052097;28;20758;-56
2021/01/29 11:30:27;;;;;;;1.88;1.25;;;11.00;99.90;;;;;;5053896;28;20304;-54
2021/01/29 11:32:58;;;;;;;1.90;0.70;;;11.00;99.90;;;;;;5053593;28;20250;-57
2021/01/29 11:35:44;;;;;;;1.20;0.73;;;11.00;99.90;;;;;;5054150;28;20231;-51
2021/01/29 11:38:31;;;;;;;1.25;0.82;;;11.00;99.90;;;;;;5053895;28;20215;-59
2021/01/29 11:41:11;;;;;;;0.80;0.80;;;11.00;99.90;;;;;;5053734;28;20243;-53
2021/01/29 11:43:43;;;;;;;1.20;0.90;;;11.00;99.90;;;;;;5053705;28;20279;-58
2021/01/29 11:46:17;;;;;;;1.15;1.00;;;11.00;99.90;;;;;;5053538;28;20212;-58
2021/01/29 11:48:51;;;;;;;1.80;1.00;;;11.10;99.90;;;;;;5053400;28;20677;-58
2021/01/29 11:51:25;;;;;;;1.00;0.90;;;11.20;99.90;;;;;;5053257;28;20310;-57
2021/01/29 11:54:10;;;;;;;1.35;1.25;;;11.20;99.90;;;;;;5052653;28;20584;-55
2021/01/29 11:56:44;;;;;;;1.08;0.85;;;11.10;99.90;;;;;;5053194;28;20710;-57
2021/01/29 11:59:24;;;;;;;1.58;0.90;;;10.90;99.90;;;;;;5053213;28;20735;-58
2021/01/29 12:02:00;;;;;;;31.40;22.08;;;10.90;99.90;;;;;;5053274;28;20246;-58
2021/01/29 12:04:35;;;;;;;3.83;2.03;;;10.90;99.90;;;;;;5053731;28;20184;-57
2021/01/29 12:07:07;;;;;;;1.52;1.42;;;10.90;99.90;;;;;;5053310;28;20307;-58
2021/01/29 12:09:43;;;;;;;3.95;2.55;;;10.90;99.90;;;;;;5053129;28;20629;-58
2021/01/29 12:12:18;;;;;;;1.27;0.93;;;10.90;99.90;;;;;;5053111;28;20298;-59
2021/01/29 12:14:55;;;;;;;5.05;4.25;;;10.90;99.90;;;;;;5052879;28;20297;-58
2021/01/29 12:17:24;;;;;;;1.92;1.00;;;10.90;99.90;;;;;;5052762;28;20737;-58
2021/01/29 12:19:59;;;;;;;1.83;1.00;;;11.00;99.90;;;;;;5053310;28;20208;-56
2021/01/29 12:22:31;;;;;;;1.98;0.90;;;11.00;99.90;;;;;;5052658;28;20214;-58
2021/01/29 12:25:14;;;;;;;2.95;1.05;;;11.10;99.90;;;;;;5053017;28;20255;-59
2021/01/29 12:27:46;;;;;;;1.13;1.00;;;11.20;99.90;;;;;;5052976;28;20287;-58
2021/01/29 12:30:20;;;;;;;1.52;1.10;;;11.30;99.90;;;;;;5052984;28;20258;-58
2021/01/29 12:32:59;;;;;;;6.05;4.40;;;11.40;99.90;;;;;;5052650;28;20327;-58
2021/01/29 12:35:34;;;;;;;3.72;2.50;;;11.40;99.90;;;;;;5052851;28;20231;-58
2021/01/29 12:38:18;;;;;;;2.45;1.75;;;11.40;99.90;;;;;;5053568;28;20655;-57
2021/01/29 12:40:48;;;;;;;100.47;56.75;;;11.30;99.90;;;;;;5052671;28;20243;-60
2021/01/29 12:43:32;;;;;;;3.13;1.77;;;11.30;99.90;;;;;;5052744;28;20318;-57
2021/01/29 12:46:02;;;;;;;3.60;2.17;;;11.30;99.90;;;;;;5052219;28;20204;-58
2021/01/29 12:48:53;;;;;;;3.83;2.13;;;11.10;99.90;;;;;;5052595;28;20211;-60
2021/01/29 12:51:27;;;;;;;21.98;15.68;;;11.00;99.90;;;;;;5055517;28;20200;-54
2021/01/29 12:54:05;;;;;;;33.88;25.88;;;10.90;99.90;;;;;;5052403;28;20302;-60
2021/01/29 12:56:59;;;;;;;4.38;2.72;;;10.90;99.90;;;;;;5171372;22;20247;-59
2021/01/29 12:59:45;;;;;;;1.85;1.58;;;10.80;99.90;;;;;;5024205;28;20204;-59
2021/01/29 13:02:47;;;;;;;5.13;2.92;;;10.70;99.90;;;;;;5032058;28;20296;-56
2021/01/29 13:05:21;;;;;;;9.38;5.65;;;10.40;99.90;;;;;;5032032;28;20679;-57
2021/01/29 13:08:02;;;;;;;2.08;1.15;;;10.10;99.90;;;;;;5031956;28;20282;-58
2021/01/29 13:10:32;;;;;;;1.67;1.25;;;9.90;99.90;;;;;;5032860;28;20633;-58
2021/01/29 13:13:24;;;;;;;1.98;1.35;;;9.70;99.90;;;;;;5028987;28;20616;-59
2021/01/29 13:16:01;;;;;;;1.92;1.30;;;9.50;99.90;;;;;;5032029;28;20228;-55
2021/01/29 13:18:44;;;;;;;3.25;0.82;;;9.40;99.90;;;;;;5031927;28;20299;-57
2021/01/29 13:21:20;;;;;;;1.38;0.75;;;9.20;99.90;;;;;;5031702;28;20204;-59
2021/01/29 13:23:49;;;;;;;2.67;1.70;;;9.00;99.90;;;;;;5032026;28;20302;-54
2021/01/29 13:26:30;;;;;;;3.00;1.10;;;9.00;99.90;;;;;;5031903;28;20599;-57
2021/01/29 13:29:01;;;;;;;1.90;1.08;;;8.90;99.90;;;;;;5031946;28;20300;-59
2021/01/29 13:31:33;;;;;;;2.72;1.30;;;8.80;99.90;;;;;;5031825;28;20299;-53
2021/01/29 13:34:03;;;;;;;1.92;1.08;;;8.80;99.90;;;;;;5030734;28;20689;-57
2021/01/29 13:36:33;;;;;;;1.77;0.70;;;8.80;99.90;;;;;;5031625;28;20611;-58
2021/01/29 13:39:14;;;;;;;1.33;0.93;;;8.70;99.90;;;;;;5031579;28;20303;-59
2021/01/29 13:41:46;;;;;;;2.38;2.00;;;8.70;99.90;;;;;;5031334;28;20291;-56
2021/01/29 13:44:26;;;;;;;2.37;1.80;;;8.70;99.90;;;;;;5031098;28;20299;-59
2021/01/29 13:46:53;;;;;;;1.05;0.95;;;8.80;99.90;;;;;;5031312;28;20251;-59
2021/01/29 13:49:30;;;;;;;1.80;1.10;;;8.80;99.90;;;;;;5031456;28;20252;-59
2021/01/29 13:51:58;;;;;;;2.05;1.17;;;8.80;99.90;;;;;;5031284;28;20218;-55
2021/01/29 13:54:37;;;;;;;3.97;2.97;;;8.90;99.90;;;;;;5031563;28;20247;-53
2021/01/29 13:57:18;;;;;;;1.67;1.25;;;9.00;99.90;;;;;;5032755;28;20240;-58